createdAt,value
2024-01-09T00:00:19.560Z,2.40
2024-01-09T00:03:11.870Z,3.00
2024-01-09T00:05:42.697Z,1.90
2024-01-09T00:08:13.859Z,1.90
2024-01-09T00:10:44.821Z,1.80
2024-01-09T00:13:14.204Z,2.40
2024-01-09T00:15:44.006Z,1.80
2024-01-09T00:20:45.280Z,1.80
2024-01-09T00:23:15.861Z,2.80
2024-01-09T00:25:45.569Z,1.90
2024-01-09T00:28:16.790Z,2.20
2024-01-09T00:30:47.309Z,2.00
2024-01-09T00:33:20.454Z,1.70
2024-01-09T00:35:53.763Z,1.60
2024-01-09T00:38:25.889Z,2.10
2024-01-09T00:40:56.693Z,1.70
2024-01-09T00:43:27.528Z,2.20
2024-01-09T00:48:30.356Z,2.20
2024-01-09T00:51:02.613Z,1.50
2024-01-09T00:53:34.354Z,1.90
2024-01-09T00:56:05.580Z,2.50
2024-01-09T00:58:37.282Z,2.20
2024-01-09T01:03:38.741Z,2.10
2024-01-09T01:06:11.951Z,2.30
2024-01-09T01:08:45.138Z,1.70
2024-01-09T01:11:16.310Z,2.00
2024-01-09T01:13:46.552Z,2.50
2024-01-09T01:18:45.984Z,2.50
2024-01-09T01:21:17.917Z,2.30
2024-01-09T01:23:49.911Z,2.80
2024-01-09T01:26:22.278Z,2.90
2024-01-09T01:28:53.421Z,3.00
2024-01-09T01:31:24.279Z,2.50
2024-01-09T01:33:57.533Z,2.20
2024-01-09T01:36:32.793Z,2.40
2024-01-09T01:39:04.697Z,2.80
2024-01-09T01:41:36.680Z,2.40
2024-01-09T01:44:19.514Z,2.10
2024-01-09T01:46:52.509Z,2.50
2024-01-09T01:49:24.729Z,2.10
2024-01-09T01:51:57.009Z,2.30
2024-01-09T01:54:29.758Z,1.90
2024-01-09T01:57:05.189Z,2.40
2024-01-09T01:59:41.924Z,2.20
2024-01-09T02:02:16.408Z,2.60
2024-01-09T02:04:50.073Z,2.70
2024-01-09T02:07:21.424Z,2.30
2024-01-09T02:09:55.351Z,2.30
2024-01-09T02:12:26.341Z,1.50
2024-01-09T02:15:00.798Z,1.90
2024-01-09T02:17:34.016Z,1.90
2024-01-09T02:20:10.317Z,2.30
2024-01-09T02:22:41.896Z,2.30
2024-01-09T02:25:13.153Z,2.50
2024-01-09T02:28:08.540Z,3.30
2024-01-09T02:30:41.092Z,3.20
2024-01-09T02:33:12.564Z,2.40
2024-01-09T02:35:43.726Z,2.80
2024-01-09T02:38:16.141Z,2.30
2024-01-09T02:40:46.832Z,2.90
2024-01-09T02:43:18.691Z,2.00
2024-01-09T02:45:49.589Z,2.10
2024-01-09T02:48:21.980Z,2.10
2024-01-09T02:50:52.509Z,2.30
2024-01-09T02:53:24.338Z,2.10
2024-01-09T02:55:56.567Z,2.70
2024-01-09T02:58:30.966Z,2.10
2024-01-09T03:01:06.039Z,2.80
2024-01-09T03:03:42.836Z,2.30
2024-01-09T03:06:18.421Z,2.40
2024-01-09T03:08:50.464Z,2.60
2024-01-09T03:11:26.428Z,2.80
2024-01-09T03:14:01.092Z,2.30
2024-01-09T03:16:37.832Z,1.90
2024-01-09T03:19:15.895Z,1.90
2024-01-09T03:21:53.053Z,2.40
2024-01-09T03:24:24.800Z,3.50
2024-01-09T03:26:57.020Z,2.60
2024-01-09T03:29:28.252Z,3.40
2024-01-09T03:32:01.585Z,3.00
2024-01-09T03:34:35.562Z,2.60
2024-01-09T03:37:09.775Z,2.70
2024-01-09T03:39:42.612Z,1.80
2024-01-09T03:42:13.843Z,2.90
2024-01-09T03:44:45.609Z,2.50
2024-01-09T03:47:18.079Z,3.20
2024-01-09T03:49:47.561Z,2.80
2024-01-09T03:52:19.839Z,2.80
2024-01-09T03:54:50.028Z,3.00
2024-01-09T03:59:50.960Z,2.90
2024-01-09T04:02:22.158Z,3.90
2024-01-09T04:04:54.032Z,3.30
2024-01-09T04:07:24.265Z,3.40
2024-01-09T04:12:25.036Z,2.20
2024-01-09T04:14:56.815Z,2.80
2024-01-09T04:17:31.405Z,2.10
2024-01-09T04:20:03.561Z,2.70
2024-01-09T04:22:33.982Z,3.10
2024-01-09T04:27:33.396Z,7.20
2024-01-09T04:35:05.596Z,6.20
2024-01-09T04:37:36.437Z,8.30
2024-01-09T04:40:06.991Z,7.90
2024-01-09T04:42:39.548Z,7.40
2024-01-09T04:45:10.765Z,6.00
2024-01-09T04:47:40.724Z,5.10
2024-01-09T04:50:10.668Z,5.80
2024-01-09T04:52:41.410Z,8.50
2024-01-09T04:55:11.938Z,7.30
2024-01-09T04:57:41.906Z,7.40
2024-01-09T05:00:13.238Z,5.70
2024-01-09T05:02:43.594Z,6.50
2024-01-09T05:05:14.344Z,4.70
2024-01-09T05:07:44.623Z,4.20
2024-01-09T05:10:15.595Z,4.60
2024-01-09T05:12:46.431Z,4.80
2024-01-09T05:15:18.090Z,4.20
2024-01-09T05:17:49.442Z,5.20
2024-01-09T05:20:19.282Z,4.30
2024-01-09T05:22:50.114Z,5.80
2024-01-09T05:25:20.724Z,4.00
2024-01-09T05:27:51.309Z,4.80
2024-01-09T05:30:21.779Z,6.60
2024-01-09T05:32:51.628Z,5.10
2024-01-09T05:35:22.844Z,4.50
2024-01-09T05:37:56.239Z,5.80
2024-01-09T05:40:29.788Z,5.00
2024-01-09T05:43:00.372Z,5.50
2024-01-09T05:45:30.620Z,5.30
2024-01-09T05:47:59.985Z,5.50
2024-01-09T05:50:30.337Z,5.90
2024-01-09T05:53:00.351Z,4.60
2024-01-09T05:55:30.707Z,6.50
2024-01-09T05:58:00.734Z,6.20
2024-01-09T06:00:30.878Z,6.30
2024-01-09T06:05:30.968Z,4.70
2024-01-09T06:08:00.981Z,6.90
2024-01-09T06:10:30.281Z,6.50
2024-01-09T06:12:59.634Z,5.30
2024-01-09T06:15:29.347Z,7.20
2024-01-09T06:17:59.524Z,11.30
2024-01-09T06:20:30.293Z,12.30
2024-01-09T06:23:00.079Z,12.50
2024-01-09T06:25:31.557Z,10.60
2024-01-09T06:28:01.605Z,13.70
2024-01-09T06:33:03.306Z,10.60
2024-01-09T06:38:02.084Z,10.00
2024-01-09T06:40:32.042Z,13.90
2024-01-09T06:43:01.538Z,11.20
2024-01-09T06:45:31.234Z,11.70
2024-01-09T06:48:01.650Z,9.50
2024-01-09T06:50:37.579Z,10.20
2024-01-09T06:53:08.784Z,11.00
2024-01-09T06:55:38.103Z,13.90
2024-01-09T06:58:07.298Z,11.30
2024-01-09T07:00:36.890Z,9.80
2024-01-09T07:03:06.870Z,12.10
2024-01-09T07:08:06.400Z,10.50
2024-01-09T07:10:36.328Z,11.20
2024-01-09T07:13:05.339Z,10.20
2024-01-09T07:15:35.145Z,11.10
2024-01-09T07:18:04.824Z,9.80
2024-01-09T07:20:34.822Z,8.10
2024-01-09T07:23:14.009Z,6.20
2024-01-09T07:25:50.122Z,3.30
2024-01-09T07:28:19.849Z,5.00
2024-01-09T07:30:49.823Z,3.20
2024-01-09T07:33:19.058Z,3.00
2024-01-09T07:35:48.945Z,2.60
2024-01-09T07:38:23.734Z,2.00
2024-01-09T07:40:55.948Z,20.40
2024-01-09T07:43:27.056Z,27.80
2024-01-09T07:45:56.994Z,31.10
2024-01-09T07:48:27.133Z,23.30
2024-01-09T07:53:28.673Z,11.40
2024-01-09T07:55:58.445Z,9.70
2024-01-09T07:58:28.345Z,10.50
2024-01-09T08:00:57.307Z,6.70
2024-01-09T08:03:27.022Z,4.60
2024-01-09T08:05:57.705Z,3.70
2024-01-09T08:08:27.761Z,2.40
2024-01-09T08:10:57.206Z,2.80
2024-01-09T08:13:26.606Z,3.10
2024-01-09T08:15:57.304Z,2.40
2024-01-09T08:18:27.268Z,1.90
2024-01-09T08:20:58.270Z,2.50
2024-01-09T08:23:27.882Z,2.10
2024-01-09T08:25:57.399Z,1.70
2024-01-09T08:28:26.720Z,1.90
2024-01-09T08:30:56.257Z,2.30
2024-01-09T08:33:27.835Z,2.50
2024-01-09T08:35:59.061Z,2.90
2024-01-09T08:38:28.868Z,4.90
2024-01-09T08:40:58.626Z,3.20
2024-01-09T08:43:28.039Z,3.20
2024-01-09T08:45:58.478Z,4.40
2024-01-09T08:48:29.075Z,3.50
2024-01-09T08:50:59.667Z,1.70
2024-01-09T08:53:32.274Z,2.70
2024-01-09T08:56:01.906Z,3.50
2024-01-09T08:58:31.411Z,2.40
2024-01-09T09:01:00.843Z,3.10
2024-01-09T09:03:31.820Z,2.70
2024-01-09T09:06:01.801Z,2.70
2024-01-09T09:08:32.584Z,1.60
2024-01-09T09:11:03.082Z,2.20
2024-01-09T09:13:34.290Z,2.50
2024-01-09T09:16:04.073Z,3.30
2024-01-09T09:18:33.304Z,2.50
2024-01-09T09:21:05.507Z,1.70
2024-01-09T09:23:35.034Z,2.10
2024-01-09T09:26:05.356Z,2.10
2024-01-09T09:28:41.077Z,2.60
2024-01-09T09:31:20.325Z,2.30
2024-01-09T09:33:50.013Z,2.30
2024-01-09T09:36:19.387Z,2.30
2024-01-09T09:38:48.983Z,2.30
2024-01-09T09:41:19.365Z,3.20
2024-01-09T09:43:57.259Z,2.40
2024-01-09T09:46:34.210Z,2.50
2024-01-09T09:49:05.066Z,2.60
2024-01-09T09:51:35.751Z,2.60
2024-01-09T09:54:06.513Z,2.70
2024-01-09T09:56:36.564Z,2.90
2024-01-09T09:59:06.138Z,2.50
2024-01-09T10:01:36.743Z,3.30
2024-01-09T10:04:28.192Z,1.70
2024-01-09T10:06:58.696Z,2.90
2024-01-09T10:09:44.102Z,3.70
2024-01-09T10:12:13.876Z,4.40
2024-01-09T10:15:10.790Z,3.00
2024-01-09T10:17:41.782Z,1.70
2024-01-09T10:20:12.716Z,1.40
2024-01-09T10:22:42.316Z,1.50
2024-01-09T10:25:13.566Z,2.10
2024-01-09T10:27:42.785Z,1.80
2024-01-09T10:30:14.436Z,1.00
2024-01-09T10:32:45.598Z,2.10
2024-01-09T10:35:17.346Z,2.30
2024-01-09T10:37:46.607Z,1.20
2024-01-09T10:40:16.704Z,2.00
2024-01-09T10:42:49.225Z,2.60
2024-01-09T10:45:21.273Z,1.70
2024-01-09T10:47:55.462Z,1.70
2024-01-09T10:50:25.467Z,1.70
2024-01-09T10:52:55.211Z,2.20
2024-01-09T10:55:26.501Z,3.50
2024-01-09T10:57:56.087Z,2.00
2024-01-09T11:00:26.651Z,2.60
2024-01-09T11:02:56.358Z,2.20
2024-01-09T11:05:26.306Z,2.60
2024-01-09T11:07:59.620Z,2.80
2024-01-09T11:10:29.661Z,3.50
2024-01-09T11:13:01.035Z,2.90
2024-01-09T11:15:45.958Z,2.60
2024-01-09T11:18:19.165Z,2.50
2024-01-09T11:20:48.807Z,2.60
2024-01-09T11:23:55.036Z,2.20
2024-01-09T11:26:25.480Z,2.30
2024-01-09T11:28:54.808Z,3.00
2024-01-09T11:31:25.445Z,3.60
2024-01-09T11:33:56.975Z,2.40
2024-01-09T11:36:29.191Z,2.60
2024-01-09T11:38:58.956Z,2.10
2024-01-09T11:44:06.519Z,1.70
2024-01-09T11:46:37.920Z,2.30
2024-01-09T11:49:08.623Z,1.90
2024-01-09T11:51:38.609Z,3.00
2024-01-09T11:54:11.156Z,1.90
2024-01-09T11:56:40.513Z,2.80
2024-01-09T11:59:10.025Z,2.20
2024-01-09T12:01:38.987Z,2.70
2024-01-09T12:04:09.497Z,1.70
2024-01-09T12:06:41.686Z,2.10
2024-01-09T12:09:13.738Z,1.70
2024-01-09T12:14:14.107Z,1.80
2024-01-09T12:16:43.401Z,1.40
2024-01-09T12:19:16.889Z,2.50
2024-01-09T12:21:47.423Z,1.70
2024-01-09T12:24:22.917Z,2.60
2024-01-09T12:26:55.647Z,3.00
2024-01-09T12:29:25.192Z,2.30
2024-01-09T12:31:54.754Z,2.00
2024-01-09T12:36:53.037Z,2.50
2024-01-09T12:39:23.709Z,2.20
2024-01-09T12:42:05.804Z,2.40
2024-01-09T12:44:35.338Z,2.90
2024-01-09T12:47:05.031Z,4.40
2024-01-09T12:49:56.522Z,3.40
2024-01-09T12:52:33.614Z,2.40
2024-01-09T12:55:05.186Z,2.40
2024-01-09T12:57:34.756Z,3.80
2024-01-09T13:00:04.042Z,2.60
2024-01-09T13:02:34.150Z,3.70
2024-01-09T13:05:03.960Z,3.00
2024-01-09T13:07:33.392Z,2.60
2024-01-09T13:10:02.820Z,3.40
2024-01-09T13:12:34.196Z,4.00
2024-01-09T13:15:04.335Z,3.80
2024-01-09T13:17:34.023Z,3.10
2024-01-09T13:25:10.048Z,2.00
2024-01-09T13:27:39.470Z,3.50
2024-01-09T13:32:41.885Z,7.10
2024-01-09T13:35:11.654Z,4.20
2024-01-09T13:37:41.717Z,4.80
2024-01-09T13:40:12.619Z,4.10
2024-01-09T13:42:41.713Z,4.80
2024-01-09T13:45:13.183Z,12.20
2024-01-09T13:47:43.597Z,19.40
2024-01-09T13:51:47.205Z,11.00
2024-01-09T13:53:04.388Z,14.70
2024-01-09T13:55:35.141Z,10.70
2024-01-09T13:58:05.040Z,12.70
2024-01-09T14:00:35.051Z,6.40
2024-01-09T14:03:05.295Z,5.40
2024-01-09T14:08:04.629Z,9.50
2024-01-09T14:10:34.272Z,11.00
2024-01-09T14:13:04.236Z,8.30
2024-01-09T14:15:34.883Z,4.80
2024-01-09T14:18:06.278Z,6.40
2024-01-09T14:20:36.802Z,4.40
2024-01-09T14:23:05.838Z,4.70
2024-01-09T14:25:37.830Z,3.90
2024-01-09T14:28:08.126Z,3.10
2024-01-09T14:30:36.988Z,5.10
2024-01-09T14:33:07.513Z,2.50
2024-01-09T14:35:39.028Z,5.70
2024-01-09T14:38:08.073Z,7.90
2024-01-09T14:40:39.563Z,6.40
2024-01-09T14:43:09.045Z,9.50
2024-01-09T14:45:41.991Z,8.30
2024-01-09T14:48:11.395Z,10.00
2024-01-09T14:50:41.256Z,13.00
2024-01-09T14:53:11.348Z,13.20
2024-01-09T14:55:42.175Z,10.40
2024-01-09T14:58:11.395Z,8.70
2024-01-09T15:00:42.056Z,11.80
2024-01-09T15:03:11.783Z,10.90
2024-01-09T15:05:42.388Z,12.10
2024-01-09T15:08:11.480Z,12.10
2024-01-09T15:10:41.712Z,11.00
2024-01-09T15:13:14.625Z,10.90
2024-01-09T15:15:43.766Z,7.70
2024-01-09T15:18:12.944Z,8.90
2024-01-09T15:20:42.112Z,11.80
2024-01-09T15:23:14.142Z,12.80
2024-01-09T15:25:43.460Z,13.20
2024-01-09T15:28:14.112Z,7.20
2024-01-09T15:30:43.195Z,8.00
2024-01-09T15:33:12.636Z,10.10
2024-01-09T15:35:42.780Z,7.90
2024-01-09T15:38:12.047Z,7.40
2024-01-09T15:40:41.680Z,5.20
2024-01-09T15:43:10.996Z,6.70
2024-01-09T15:45:40.617Z,4.40
2024-01-09T15:48:10.283Z,8.60
2024-01-09T15:50:39.312Z,10.00
2024-01-09T15:53:09.175Z,12.00
2024-01-09T15:55:39.760Z,12.70
2024-01-09T16:00:43.070Z,9.60
2024-01-09T16:03:14.110Z,9.10
2024-01-09T16:05:43.937Z,9.40
2024-01-09T16:08:13.057Z,8.80
2024-01-09T16:10:44.488Z,10.00
2024-01-09T16:13:14.358Z,5.80
2024-01-09T16:15:49.704Z,7.30
2024-01-09T16:18:19.238Z,9.00
2024-01-09T16:20:48.296Z,9.30
2024-01-09T16:23:17.236Z,10.60
2024-01-09T16:25:46.508Z,6.50
2024-01-09T16:28:17.809Z,6.00
2024-01-09T16:30:47.149Z,6.90
2024-01-09T16:33:16.823Z,7.00
2024-01-09T16:35:46.164Z,6.70
2024-01-09T16:38:16.039Z,7.20
2024-01-09T16:40:45.483Z,4.50
2024-01-09T16:43:15.377Z,6.70
2024-01-09T16:45:47.511Z,7.30
2024-01-09T16:48:31.477Z,15.80
2024-01-09T16:51:06.706Z,17.40
2024-01-09T16:53:35.731Z,14.60
2024-01-09T16:56:05.453Z,11.20
2024-01-09T16:58:35.234Z,9.00
2024-01-09T17:01:04.937Z,12.90
2024-01-09T17:03:35.688Z,13.50
2024-01-09T17:06:05.974Z,16.60
2024-01-09T17:08:35.000Z,8.40
2024-01-09T17:11:04.306Z,8.90
2024-01-09T17:13:33.440Z,8.50
2024-01-09T17:16:06.603Z,13.40
2024-01-09T17:18:36.697Z,8.60
2024-01-09T17:21:06.844Z,22.10
2024-01-09T17:23:36.076Z,10.90
2024-01-09T17:26:05.595Z,22.20
2024-01-09T17:28:34.500Z,12.70
2024-01-09T17:31:04.622Z,24.70
2024-01-09T17:33:34.266Z,29.90
2024-01-09T17:36:03.440Z,17.80
2024-01-09T17:38:32.895Z,18.60
2024-01-09T17:41:02.277Z,13.50
2024-01-09T17:43:31.074Z,27.20
2024-01-09T17:46:00.052Z,14.30
2024-01-09T17:48:30.284Z,13.70
2024-01-09T17:51:02.929Z,24.10
2024-01-09T17:53:31.817Z,36.50
2024-01-09T17:56:03.287Z,20.10
2024-01-09T17:58:32.285Z,18.40
2024-01-09T18:01:03.179Z,15.20
2024-01-09T18:03:32.329Z,24.50
2024-01-09T18:06:02.114Z,18.60
2024-01-09T18:08:31.311Z,11.80
2024-01-09T18:11:04.027Z,21.90
2024-01-09T18:13:33.129Z,13.90
2024-01-09T18:16:02.148Z,15.10
2024-01-09T18:18:35.014Z,9.80
2024-01-09T18:21:06.269Z,17.30
2024-01-09T18:23:35.810Z,15.30
2024-01-09T18:26:11.081Z,11.40
2024-01-09T18:28:43.860Z,15.80
2024-01-09T18:31:16.591Z,13.50
2024-01-09T18:33:46.478Z,17.80
2024-01-09T18:36:15.232Z,14.20
2024-01-09T18:38:44.239Z,34.10
2024-01-09T18:41:20.289Z,19.70
2024-01-09T18:43:49.613Z,24.70
2024-01-09T18:46:18.762Z,16.00
2024-01-09T18:48:48.053Z,26.60
2024-01-09T18:51:16.850Z,17.50
2024-01-09T18:53:46.159Z,13.20
2024-01-09T18:56:15.138Z,29.20
2024-01-09T18:58:44.354Z,16.10
2024-01-09T19:01:13.471Z,12.70
2024-01-09T19:03:42.603Z,20.30
2024-01-09T19:06:11.521Z,19.10
2024-01-09T19:08:41.240Z,14.10
2024-01-09T19:11:10.938Z,16.00
2024-01-09T19:13:40.381Z,12.60
2024-01-09T19:16:13.232Z,14.60
2024-01-09T19:18:42.085Z,9.20
2024-01-09T19:21:11.316Z,8.90
2024-01-09T19:23:40.111Z,9.60
2024-01-09T19:26:09.407Z,13.00
2024-01-09T19:28:39.454Z,8.10
2024-01-09T19:31:08.693Z,8.50
2024-01-09T19:33:37.838Z,12.10
2024-01-09T19:36:14.695Z,8.60
2024-01-09T19:38:44.716Z,8.00
2024-01-09T19:41:17.709Z,8.80
2024-01-09T19:43:46.638Z,14.60
2024-01-09T19:46:16.139Z,29.00
2024-01-09T19:48:45.132Z,28.60
2024-01-09T19:51:14.286Z,24.40
2024-01-09T19:53:43.500Z,16.10
2024-01-09T19:56:12.647Z,17.50
2024-01-09T19:58:42.640Z,11.70
2024-01-09T20:01:11.681Z,15.20
2024-01-09T20:03:41.396Z,24.20
2024-01-09T20:06:30.305Z,18.10
2024-01-09T20:08:59.562Z,19.00
2024-01-09T20:11:31.428Z,11.00
2024-01-09T20:14:01.289Z,9.80
2024-01-09T20:16:30.961Z,15.40
2024-01-09T20:19:00.443Z,8.40
2024-01-09T20:21:31.380Z,10.90
2024-01-09T20:24:00.579Z,13.50
2024-01-09T20:26:36.773Z,13.70
2024-01-09T20:29:10.675Z,16.40
2024-01-09T20:31:39.754Z,17.30
2024-01-09T20:34:08.981Z,23.90
2024-01-09T20:36:45.020Z,12.60
2024-01-09T20:39:16.773Z,25.50
2024-01-09T20:41:45.472Z,16.20
2024-01-09T20:44:15.225Z,14.10
2024-01-09T20:46:45.480Z,13.10
2024-01-09T20:51:46.951Z,8.30
2024-01-09T20:54:16.054Z,9.60
2024-01-09T20:56:45.657Z,16.90
2024-01-09T20:59:16.900Z,29.70
2024-01-09T21:01:46.027Z,24.40
2024-01-09T21:04:15.842Z,31.80
2024-01-09T21:06:49.520Z,17.00
2024-01-09T21:09:19.037Z,14.00
2024-01-09T21:11:48.312Z,14.50
2024-01-09T21:14:17.585Z,11.40
2024-01-09T21:16:46.639Z,9.20
2024-01-09T21:19:15.639Z,13.60
2024-01-09T21:21:45.638Z,12.50
2024-01-09T21:24:15.525Z,17.90
2024-01-09T21:26:44.838Z,16.00
2024-01-09T21:29:14.201Z,10.00
2024-01-09T21:31:43.505Z,11.70
2024-01-09T21:34:12.673Z,12.00
2024-01-09T21:36:42.074Z,6.50
2024-01-09T21:39:11.340Z,5.50
2024-01-09T21:41:40.922Z,18.00
2024-01-09T21:44:10.473Z,26.60
2024-01-09T21:46:39.668Z,10.30
2024-01-09T21:49:09.169Z,10.10
2024-01-09T21:51:38.367Z,9.50
2024-01-09T21:54:07.415Z,12.20
2024-01-09T21:56:37.754Z,10.90
2024-01-09T21:59:07.086Z,11.50
2024-01-09T22:01:37.963Z,8.50
2024-01-09T22:04:07.185Z,8.10
2024-01-09T22:06:36.888Z,9.20
2024-01-09T22:09:07.325Z,9.90
2024-01-09T22:11:41.204Z,5.30
2024-01-09T22:14:11.358Z,9.20
2024-01-09T22:16:41.364Z,6.00
2024-01-09T22:19:11.415Z,7.80
2024-01-09T22:21:46.272Z,19.60
2024-01-09T22:24:17.006Z,10.40
2024-01-09T22:26:48.524Z,17.20
2024-01-09T22:29:17.758Z,25.60
2024-01-09T22:31:48.378Z,13.10
2024-01-09T22:34:18.551Z,10.40
2024-01-09T22:39:20.006Z,21.70
2024-01-09T22:41:49.949Z,24.90
2024-01-09T22:46:49.072Z,25.10
2024-01-09T22:49:18.178Z,29.10
2024-01-09T22:51:48.531Z,30.60
2024-01-09T22:54:18.219Z,24.90
2024-01-09T22:56:48.531Z,22.90
2024-01-09T22:59:18.249Z,18.30
2024-01-09T23:01:51.661Z,35.00
2024-01-09T23:04:22.056Z,23.40
2024-01-09T23:06:53.077Z,23.10
2024-01-09T23:09:22.184Z,30.30
2024-01-09T23:11:51.786Z,29.60
2024-01-09T23:14:23.089Z,30.10
2024-01-09T23:16:52.988Z,26.80
2024-01-09T23:19:22.187Z,25.70
2024-01-09T23:21:52.544Z,15.00
2024-01-09T23:24:24.125Z,11.20
2024-01-09T23:26:54.292Z,15.10
2024-01-09T23:31:53.285Z,9.10
2024-01-09T23:34:24.604Z,7.50
2024-01-09T23:36:55.049Z,15.30
2024-01-09T23:41:55.259Z,7.60
2024-01-09T23:46:55.753Z,5.60
2024-01-09T23:49:26.622Z,12.90
2024-01-09T23:51:56.411Z,11.30
2024-01-09T23:54:25.788Z,12.50
2024-01-09T23:56:56.052Z,10.40
2024-01-09T23:59:26.468Z,15.10
